createdAt,value
2018-08-24T00:05:23.350Z,100424.00
2018-08-24T00:11:26.818Z,100418.00
2018-08-24T00:17:31.226Z,100430.00
2018-08-24T00:23:34.868Z,100436.00
2018-08-24T00:29:38.209Z,100439.00
2018-08-24T00:35:41.699Z,100429.00
2018-08-24T00:41:46.867Z,100423.00
2018-08-24T00:47:50.269Z,100409.00
2018-08-24T00:53:53.749Z,100407.00
2018-08-24T00:59:57.110Z,100402.00
2018-08-24T01:06:01.261Z,100413.00
2018-08-24T01:12:11.657Z,100408.00
2018-08-24T01:18:18.771Z,100413.00
2018-08-24T01:24:29.100Z,100410.00
2018-08-24T01:30:32.803Z,100409.00
2018-08-24T01:36:36.826Z,100406.00
2018-08-24T01:42:40.267Z,100398.00
2018-08-24T01:48:43.718Z,100389.00
2018-08-24T01:54:47.358Z,100403.00
2018-08-24T02:00:51.023Z,100403.00
2018-08-24T02:06:54.581Z,100401.00
2018-08-24T02:13:03.473Z,100406.00
2018-08-24T02:19:12.552Z,100397.00
2018-08-24T02:25:16.349Z,100396.00
2018-08-24T02:31:20.238Z,100396.00
2018-08-24T02:37:24.065Z,100399.00
2018-08-24T02:43:27.592Z,100389.00
2018-08-24T02:49:31.163Z,100378.00
2018-08-24T02:55:35.082Z,100383.00
2018-08-24T03:01:38.543Z,100383.00
2018-08-24T03:07:42.190Z,100374.00
2018-08-24T03:13:46.145Z,100376.00
2018-08-24T03:19:49.810Z,100383.00
2018-08-24T03:25:53.558Z,100381.00
2018-08-24T03:31:56.911Z,100379.00
2018-08-24T03:38:00.434Z,100394.00
2018-08-24T03:44:04.217Z,100389.00
2018-08-24T03:50:07.689Z,100388.00
2018-08-24T03:56:11.360Z,100391.00
2018-08-24T04:02:15.031Z,100400.00
2018-08-24T04:08:18.476Z,100409.00
2018-08-24T04:14:23.073Z,100409.00
2018-08-24T04:20:26.563Z,100404.00
2018-08-24T04:26:31.376Z,100401.00
2018-08-24T04:32:34.971Z,100415.00
2018-08-24T04:38:38.655Z,100416.00
2018-08-24T04:44:41.915Z,100413.00
2018-08-24T04:50:45.648Z,100430.00
2018-08-24T04:56:49.430Z,100421.00
2018-08-24T05:02:53.113Z,100409.00
2018-08-24T05:08:56.616Z,100411.00
2018-08-24T05:15:00.352Z,100423.00
2018-08-24T05:21:04.187Z,100421.00
2018-08-24T05:27:07.890Z,100428.00
2018-08-24T05:33:12.341Z,100424.00
2018-08-24T05:39:16.197Z,100431.00
2018-08-24T05:45:19.583Z,100431.00
2018-08-24T05:51:23.626Z,100451.00
2018-08-24T05:57:27.266Z,100456.00
2018-08-24T06:03:30.716Z,100450.00
2018-08-24T06:09:34.421Z,100447.00
2018-08-24T06:15:38.177Z,100444.00
2018-08-24T06:21:42.041Z,100444.00
2018-08-24T06:27:45.923Z,100449.00
2018-08-24T06:33:50.671Z,100469.00
2018-08-24T06:39:53.993Z,100463.00
2018-08-24T06:45:57.665Z,100473.00
2018-08-24T06:52:01.279Z,100467.00
2018-08-24T06:58:04.928Z,100480.00
2018-08-24T07:04:08.874Z,100489.00
2018-08-24T07:10:12.803Z,100489.00
2018-08-24T07:16:17.089Z,100502.00
2018-08-24T07:22:20.450Z,100508.00
2018-08-24T07:28:24.353Z,100512.00
2018-08-24T07:34:27.932Z,100513.00
2018-08-24T07:40:31.575Z,100519.00
2018-08-24T07:46:35.120Z,100523.00
2018-08-24T07:52:40.394Z,100539.00
2018-08-24T07:58:44.936Z,100539.00
2018-08-24T08:04:48.635Z,100546.00
2018-08-24T08:10:52.613Z,100563.00
2018-08-24T08:17:00.750Z,100573.00
2018-08-24T08:23:11.661Z,100570.00
2018-08-24T08:29:20.813Z,100581.00
2018-08-24T08:35:24.346Z,100581.00
2018-08-24T08:41:28.521Z,100587.00
2018-08-24T08:47:33.079Z,100594.00
2018-08-24T08:53:36.547Z,100608.00
2018-08-24T08:59:40.358Z,100607.00
2018-08-24T09:05:44.110Z,100610.00
2018-08-24T09:11:48.376Z,100613.00
2018-08-24T09:17:57.669Z,100617.00
2018-08-24T09:24:06.486Z,100614.00
2018-08-24T09:30:10.225Z,100615.00
2018-08-24T09:36:22.733Z,100621.00
2018-08-24T09:42:27.150Z,100627.00
2018-08-24T09:48:35.160Z,100622.00
2018-08-24T09:54:38.882Z,100626.00
2018-08-24T10:00:48.081Z,100628.00
2018-08-24T10:06:57.273Z,100622.00
2018-08-24T10:13:00.975Z,100631.00
2018-08-24T10:19:04.364Z,100634.00
2018-08-24T10:25:08.043Z,100626.00
2018-08-24T10:31:11.455Z,100632.00
2018-08-24T10:37:15.348Z,100621.00
2018-08-24T10:43:19.209Z,100635.00
2018-08-24T10:49:22.637Z,100625.00
2018-08-24T10:55:26.460Z,100633.00
2018-08-24T11:01:30.204Z,100621.00
2018-08-24T11:07:34.013Z,100630.00
2018-08-24T11:13:38.551Z,100619.00
2018-08-24T11:19:42.169Z,100627.00
2018-08-24T11:25:45.690Z,100621.00
2018-08-24T11:31:48.973Z,100622.00
2018-08-24T11:37:52.274Z,100628.00
2018-08-24T11:43:55.762Z,100633.00
2018-08-24T11:49:59.057Z,100626.00
2018-08-24T11:56:02.589Z,100633.00
2018-08-24T12:02:06.100Z,100640.00
2018-08-24T12:08:09.557Z,100634.00
2018-08-24T12:14:13.038Z,100625.00
2018-08-24T12:20:16.359Z,100621.00
2018-08-24T12:26:20.350Z,100621.00
2018-08-24T12:32:23.756Z,100629.00
2018-08-24T12:38:27.257Z,100630.00
2018-08-24T12:44:30.827Z,100635.00
2018-08-24T12:50:34.507Z,100634.00
2018-08-24T12:56:38.743Z,100613.00
2018-08-24T13:02:42.621Z,100618.00
2018-08-24T13:08:46.868Z,100611.00
2018-08-24T13:14:50.239Z,100617.00
2018-08-24T13:20:53.613Z,100604.00
2018-08-24T13:26:56.972Z,100602.00
2018-08-24T13:33:00.553Z,100601.00
2018-08-24T13:39:06.698Z,100602.00
2018-08-24T13:45:10.148Z,100607.00
2018-08-24T13:51:13.611Z,100611.00
2018-08-24T13:57:16.961Z,100604.00
2018-08-24T14:03:20.522Z,100603.00
2018-08-24T14:09:23.895Z,100601.00
2018-08-24T14:15:27.876Z,100586.00
2018-08-24T14:21:31.400Z,100582.00
2018-08-24T14:27:36.016Z,100586.00
2018-08-24T14:33:39.987Z,100580.00
2018-08-24T14:39:43.631Z,100591.00
2018-08-24T14:45:47.008Z,100583.00
2018-08-24T14:51:50.922Z,100587.00
2018-08-24T14:57:54.362Z,100581.00
2018-08-24T15:03:57.977Z,100572.00
2018-08-24T15:10:01.519Z,100580.00
2018-08-24T15:16:04.957Z,100586.00
2018-08-24T15:22:08.393Z,100580.00
2018-08-24T15:28:11.759Z,100578.00
2018-08-24T15:34:15.058Z,100555.00
2018-08-24T15:40:18.394Z,100586.00
2018-08-24T15:46:26.380Z,100588.00
2018-08-24T15:52:30.011Z,100594.00
2018-08-24T15:58:33.417Z,100602.00
2018-08-24T16:04:36.929Z,100571.00
2018-08-24T16:10:40.429Z,100599.00
2018-08-24T16:16:43.893Z,100604.00
2018-08-24T16:22:47.450Z,100598.00
2018-08-24T16:28:51.103Z,100603.00
2018-08-24T16:34:54.553Z,100596.00
2018-08-24T16:40:58.022Z,100592.00
2018-08-24T16:47:01.437Z,100592.00
2018-08-24T16:53:04.750Z,100604.00
2018-08-24T16:59:08.067Z,100591.00
2018-08-24T17:05:11.413Z,100588.00
2018-08-24T17:11:14.925Z,100589.00
2018-08-24T17:17:19.267Z,100575.00
2018-08-24T17:23:22.608Z,100571.00
2018-08-24T17:29:26.046Z,100581.00
2018-08-24T17:35:29.362Z,100575.00
2018-08-24T17:41:32.782Z,100571.00
2018-08-24T17:47:36.720Z,100565.00
2018-08-24T17:53:40.041Z,100569.00
2018-08-24T17:59:43.334Z,100561.00
2018-08-24T18:05:46.730Z,100564.00
2018-08-24T18:11:50.406Z,100569.00
2018-08-24T18:17:53.678Z,100557.00
2018-08-24T18:23:57.074Z,100570.00
2018-08-24T18:30:00.552Z,100566.00
2018-08-24T18:36:03.984Z,100567.00
2018-08-24T18:42:07.389Z,100569.00
2018-08-24T18:48:10.686Z,100570.00
2018-08-24T18:54:14.061Z,100572.00
2018-08-24T19:00:17.420Z,100570.00
2018-08-24T19:06:21.042Z,100575.00
2018-08-24T19:12:26.437Z,100578.00
2018-08-24T19:18:36.307Z,100580.00
2018-08-24T19:24:39.624Z,100593.00
2018-08-24T19:30:43.176Z,100581.00
2018-08-24T19:36:46.466Z,100578.00
2018-08-24T19:42:49.729Z,100576.00
2018-08-24T19:48:58.651Z,100569.00
2018-08-24T19:55:02.662Z,100563.00
2018-08-24T20:01:06.015Z,100555.00
2018-08-24T20:07:15.668Z,100559.00
2018-08-24T20:13:19.591Z,100558.00
2018-08-24T20:19:23.158Z,100559.00
2018-08-24T20:25:26.685Z,100532.00
2018-08-24T20:31:30.136Z,100543.00
2018-08-24T20:37:33.501Z,100525.00
2018-08-24T20:43:37.104Z,100532.00
2018-08-24T20:49:42.504Z,100538.00
2018-08-24T20:55:45.948Z,100532.00
2018-08-24T21:01:50.906Z,100519.00
2018-08-24T21:07:54.475Z,100509.00
2018-08-24T21:13:57.811Z,100507.00
2018-08-24T21:20:01.353Z,100496.00
2018-08-24T21:26:05.000Z,100508.00
2018-08-24T21:32:08.535Z,100495.00
2018-08-24T21:38:11.849Z,100500.00
2018-08-24T21:44:15.198Z,100506.00
2018-08-24T21:50:18.723Z,100506.00
2018-08-24T21:56:22.256Z,100519.00
2018-08-24T22:02:26.074Z,100502.00
2018-08-24T22:08:30.197Z,100510.00
2018-08-24T22:14:33.758Z,100500.00
2018-08-24T22:20:37.464Z,100507.00
2018-08-24T22:26:41.002Z,100512.00
2018-08-24T22:32:44.673Z,100503.00
2018-08-24T22:38:48.166Z,100506.00
2018-08-24T22:44:51.714Z,100495.00
2018-08-24T22:50:55.238Z,100497.00
2018-08-24T22:56:58.828Z,100496.00
2018-08-24T23:03:02.602Z,100488.00
2018-08-24T23:09:08.798Z,100482.00
2018-08-24T23:15:12.326Z,100476.00
2018-08-24T23:21:16.331Z,100470.00
2018-08-24T23:27:19.912Z,100456.00
2018-08-24T23:33:23.746Z,100454.00
2018-08-24T23:39:27.589Z,100442.00
2018-08-24T23:45:30.882Z,100432.00
2018-08-24T23:51:34.482Z,100422.00
2018-08-24T23:57:38.110Z,100417.00
